^^
Your Local Weather - Clay, NY Station Historical Data
Daily Summary for January 03, 2018 Units:  Both    English   Metric
« Previous Day
Next Day »
Daily Weekly Monthly Yearly Custom
  High: Low: Average:
Temperature: 24.2 °F /  -4.3 °C -0.6 °F /  -18.1 °C 15.9 °F /  -8.9 °C
Dew Point: 6.8 °F /  -14 °C -5.8 °F /  -21 °C 1.7 °F /  -16.8 °C
Humidity: 80% 36% 54%
Wind Speed: 5.0mph /  8km/h - 1.5mph /  2.4km/h
Wind Gust: 10.0mph /  16.1km/h - -
Wind- - South
Pressure: 30.21 in /  1022.9 hPa 29.97 in /  1014.8 hPa -
Precipitation: 0.00 in /  0 mm    
Historical Graphs
 
 
Tabular Data for January 03, 2018
Time Temperature Dew Point Pressure Wind Wind Speed Wind Gust Humidity Rainfall Rate (Hourly) solar
00:00 17.3 °F /  -8.2 °C 6.8 °F /  -14 °C 30.20in /  1022.6hPa SW 4.0mph /  6.4km/h 4.0mph /  6.4km/h 63% 0.00in /  0mm 0 W/m2
00:02 17.4 °F /  -8.1 °C 6.6 °F /  -14.1 °C 30.20in /  1022.6hPa SW 4.0mph /  6.4km/h 5.0mph /  8km/h 62% 0.00in /  0mm 0 W/m2
00:08 17.3 °F /  -8.2 °C 6.5 °F /  -14.2 °C 30.20in /  1022.6hPa SW 4.0mph /  6.4km/h 5.0mph /  8km/h 62% 0.00in /  0mm 0 W/m2
00:14 17.3 °F /  -8.2 °C 6.5 °F /  -14.2 °C 30.20in /  1022.6hPa SW 3.0mph /  4.8km/h 4.0mph /  6.4km/h 62% 0.00in /  0mm 0 W/m2
00:18 17.2 °F /  -8.2 °C 6.4 °F /  -14.2 °C 30.20in /  1022.6hPa SW 3.0mph /  4.8km/h 4.0mph /  6.4km/h 62% 0.00in /  0mm 0 W/m2
00:24 17.2 °F /  -8.2 °C 6.4 °F /  -14.2 °C 30.20in /  1022.6hPa SSW 3.0mph /  4.8km/h 3.0mph /  4.8km/h 62% 0.00in /  0mm 0 W/m2
00:36 17.2 °F /  -8.2 °C 6.0 °F /  -14.4 °C 30.19in /  1022.2hPa SSW 3.0mph /  4.8km/h 7.0mph /  11.3km/h 61% 0.00in /  0mm 0 W/m2
00:42 17.2 °F /  -8.2 °C 5.7 °F /  -14.6 °C 30.19in /  1022.2hPa SW 4.0mph /  6.4km/h 5.0mph /  8km/h 60% 0.00in /  0mm 0 W/m2
00:50 17.1 °F /  -8.3 °C 5.2 °F /  -14.9 °C 30.19in /  1022.2hPa South 4.0mph /  6.4km/h 4.0mph /  6.4km/h 59% 0.00in /  0mm 0 W/m2
00:56 17.1 °F /  -8.3 °C 5.2 °F /  -14.9 °C 30.18in /  1021.9hPa WSW 3.0mph /  4.8km/h 4.0mph /  6.4km/h 59% 0.00in /  0mm 0 W/m2
01:02 17.0 °F /  -8.3 °C 5.1 °F /  -14.9 °C 30.18in /  1021.9hPa SW 3.0mph /  4.8km/h 5.0mph /  8km/h 59% 0.00in /  0mm 0 W/m2
01:08 17.0 °F /  -8.3 °C 5.1 °F /  -14.9 °C 30.18in /  1021.9hPa SW 3.0mph /  4.8km/h 6.0mph /  9.7km/h 59% 0.00in /  0mm 0 W/m2
01:20 16.9 °F /  -8.4 °C 5.0 °F /  -15 °C 30.18in /  1021.9hPa WSW 3.0mph /  4.8km/h 3.0mph /  4.8km/h 59% 0.00in /  0mm 0 W/m2
01:26 17.0 °F /  -8.3 °C 5.1 °F /  -14.9 °C 30.18in /  1021.9hPa WSW 3.0mph /  4.8km/h 5.0mph /  8km/h 59% 0.00in /  0mm 0 W/m2
01:32 17.0 °F /  -8.3 °C 5.1 °F /  -14.9 °C 30.18in /  1021.9hPa WSW 4.0mph /  6.4km/h 4.0mph /  6.4km/h 59% 0.00in /  0mm 0 W/m2
01:38 17.0 °F /  -8.3 °C 4.7 °F /  -15.2 °C 30.18in /  1021.9hPa SW 3.0mph /  4.8km/h 7.0mph /  11.3km/h 58% 0.00in /  0mm 0 W/m2
01:44 16.8 °F /  -8.4 °C 4.9 °F /  -15.1 °C 30.18in /  1021.9hPa SW 3.0mph /  4.8km/h 4.0mph /  6.4km/h 59% 0.00in /  0mm 0 W/m2
01:50 16.7 °F /  -8.5 °C 4.8 °F /  -15.1 °C 30.18in /  1021.9hPa South 4.0mph /  6.4km/h 6.0mph /  9.7km/h 59% 0.00in /  0mm 0 W/m2
01:56 16.6 °F /  -8.6 °C 4.7 °F /  -15.2 °C 30.19in /  1022.2hPa SW 3.0mph /  4.8km/h 6.0mph /  9.7km/h 59% 0.00in /  0mm 0 W/m2
02:08 16.0 °F /  -8.9 °C 4.2 °F /  -15.4 °C 30.19in /  1022.2hPa SSW 3.0mph /  4.8km/h 5.0mph /  8km/h 59% 0.00in /  0mm 0 W/m2
02:14 15.7 °F /  -9.1 °C 4.3 °F /  -15.4 °C 30.19in /  1022.2hPa SW 2.0mph /  3.2km/h 3.0mph /  4.8km/h 60% 0.00in /  0mm 0 W/m2
02:20 15.6 °F /  -9.1 °C 3.8 °F /  -15.7 °C 30.20in /  1022.6hPa South 2.0mph /  3.2km/h 5.0mph /  8km/h 59% 0.00in /  0mm 0 W/m2
02:26 15.3 °F /  -9.3 °C 3.9 °F /  -15.6 °C 30.20in /  1022.6hPa South 2.0mph /  3.2km/h 5.0mph /  8km/h 60% 0.00in /  0mm 0 W/m2
02:32 15.0 °F /  -9.4 °C 3.6 °F /  -15.8 °C 30.20in /  1022.6hPa South 1.0mph /  1.6km/h 1.0mph /  1.6km/h 60% 0.00in /  0mm 0 W/m2
02:38 14.5 °F /  -9.7 °C 3.5 °F /  -15.8 °C 30.20in /  1022.6hPa South 1.0mph /  1.6km/h 4.0mph /  6.4km/h 61% 0.00in /  0mm 0 W/m2
02:50 13.9 °F /  -10.1 °C 2.6 °F /  -16.3 °C 30.20in /  1022.6hPa South 2.0mph /  3.2km/h 2.0mph /  3.2km/h 60% 0.00in /  0mm 0 W/m2
02:56 13.8 °F /  -10.1 °C 2.5 °F /  -16.4 °C 30.20in /  1022.6hPa SSW 2.0mph /  3.2km/h 2.0mph /  3.2km/h 60% 0.00in /  0mm 0 W/m2
03:02 13.4 °F /  -10.3 °C 2.1 °F /  -16.6 °C 30.20in /  1022.6hPa SSW 1.0mph /  1.6km/h 3.0mph /  4.8km/h 60% 0.00in /  0mm 0 W/m2
03:08 13.2 °F /  -10.4 °C 1.9 °F /  -16.7 °C 30.21in /  1022.9hPa South 2.0mph /  3.2km/h 3.0mph /  4.8km/h 60% 0.00in /  0mm 0 W/m2
03:14 13.0 °F /  -10.6 °C 1.7 °F /  -16.8 °C 30.21in /  1022.9hPa SSW 2.0mph /  3.2km/h 2.0mph /  3.2km/h 60% 0.00in /  0mm 0 W/m2
03:20 13.0 °F /  -10.6 °C 1.7 °F /  -16.8 °C 30.21in /  1022.9hPa SSW 2.0mph /  3.2km/h 2.0mph /  3.2km/h 60% 0.00in /  0mm 0 W/m2
03:28 12.9 °F /  -10.6 °C 1.6 °F /  -16.9 °C 30.20in /  1022.6hPa South 2.0mph /  3.2km/h 3.0mph /  4.8km/h 60% 0.00in /  0mm 0 W/m2
03:34 12.7 °F /  -10.7 °C 1.4 °F /  -17 °C 30.20in /  1022.6hPa SSW 1.0mph /  1.6km/h 2.0mph /  3.2km/h 60% 0.00in /  0mm 0 W/m2
03:40 12.3 °F /  -10.9 °C 1.4 °F /  -17 °C 30.20in /  1022.6hPa South 1.0mph /  1.6km/h 1.0mph /  1.6km/h 61% 0.00in /  0mm 0 W/m2
03:46 11.8 °F /  -11.2 °C 0.9 °F /  -17.3 °C 30.20in /  1022.6hPa South 1.0mph /  1.6km/h 1.0mph /  1.6km/h 61% 0.00in /  0mm 0 W/m2
03:52 11.1 °F /  -11.6 °C 0.6 °F /  -17.4 °C 30.20in /  1022.6hPa Calm   2.0mph /  3.2km/h 62% 0.00in /  0mm 0 W/m2
03:58 10.6 °F /  -11.9 °C 0.5 °F /  -17.5 °C 30.20in /  1022.6hPa South 1.0mph /  1.6km/h 2.0mph /  3.2km/h 63% 0.00in /  0mm 0 W/m2
04:04 10.3 °F /  -12.1 °C 0.2 °F /  -17.7 °C 30.20in /  1022.6hPa Calm   1.0mph /  1.6km/h 63% 0.00in /  0mm 0 W/m2
04:16 9.7 °F /  -12.4 °C 0.0 °F /  -17.8 °C 30.20in /  1022.6hPa Calm     64% 0.00in /  0mm 0 W/m2
04:20 9.5 °F /  -12.5 °C -0.2 °F /  -17.9 °C 30.19in /  1022.2hPa Calm     64% 0.00in /  0mm 0 W/m2
04:26 9.1 °F /  -12.7 °C -0.3 °F /  -17.9 °C 30.20in /  1022.6hPa Calm     65% 0.00in /  0mm 0 W/m2
04:34 9.3 °F /  -12.6 °C 0.2 °F /  -17.7 °C 30.20in /  1022.6hPa South 1.0mph /  1.6km/h 2.0mph /  3.2km/h 66% 0.00in /  0mm 0 W/m2
04:38 9.4 °F /  -12.6 °C 0.0 °F /  -17.8 °C 30.20in /  1022.6hPa South 1.0mph /  1.6km/h 2.0mph /  3.2km/h 65% 0.00in /  0mm 0 W/m2
04:44 9.3 °F /  -12.6 °C -0.1 °F /  -17.8 °C 30.20in /  1022.6hPa South 1.0mph /  1.6km/h 3.0mph /  4.8km/h 65% 0.00in /  0mm 0 W/m2
04:56 8.8 °F /  -12.9 °C -0.6 °F /  -18.1 °C 30.20in /  1022.6hPa Calm   2.0mph /  3.2km/h 65% 0.00in /  0mm 0 W/m2
05:04 8.0 °F /  -13.3 °C -1.3 °F /  -18.5 °C 30.19in /  1022.2hPa Calm     65% 0.00in /  0mm 0 W/m2
05:16 6.7 °F /  -14.1 °C -1.9 °F /  -18.8 °C 30.19in /  1022.2hPa Calm     67% 0.00in /  0mm 0 W/m2
05:22 6.2 °F /  -14.3 °C -2.1 °F /  -18.9 °C 30.19in /  1022.2hPa Calm     68% 0.00in /  0mm 0 W/m2
05:28 5.8 °F /  -14.6 °C -2.5 °F /  -19.2 °C 30.19in /  1022.2hPa Calm     68% 0.00in /  0mm 0 W/m2
05:34 5.6 °F /  -14.7 °C -2.4 °F /  -19.1 °C 30.19in /  1022.2hPa Calm   2.0mph /  3.2km/h 69% 0.00in /  0mm 0 W/m2
05:40 5.3 °F /  -14.8 °C -2.4 °F /  -19.1 °C 30.19in /  1022.2hPa Calm     70% 0.00in /  0mm 0 W/m2
05:46 5.0 °F /  -15 °C -2.7 °F /  -19.3 °C 30.19in /  1022.2hPa Calm     70% 0.00in /  0mm 0 W/m2
05:56 4.4 °F /  -15.3 °C -2.9 °F /  -19.4 °C 30.19in /  1022.2hPa Calm     71% 0.00in /  0mm 0 W/m2
06:16 4.1 °F /  -15.5 °C -2.9 °F /  -19.4 °C 30.19in /  1022.2hPa Calm     72% 0.00in /  0mm 0 W/m2
06:22 3.9 °F /  -15.6 °C -3.1 °F /  -19.5 °C 30.18in /  1021.9hPa Calm   1.0mph /  1.6km/h 72% 0.00in /  0mm 0 W/m2
06:34 4.4 °F /  -15.3 °C -2.3 °F /  -19.1 °C 30.19in /  1022.2hPa Calm     73% 0.00in /  0mm 0 W/m2
06:46 3.9 °F /  -15.6 °C -3.1 °F /  -19.5 °C 30.19in /  1022.2hPa Calm     72% 0.00in /  0mm 0 W/m2
06:52 2.5 °F /  -16.4 °C -4.5 °F /  -20.3 °C 30.19in /  1022.2hPa Calm     72% 0.00in /  0mm 0 W/m2
06:58 2.1 °F /  -16.6 °C -4.6 °F /  -20.3 °C 30.19in /  1022.2hPa Calm     73% 0.00in /  0mm 0 W/m2
07:04 1.5 °F /  -16.9 °C -4.9 °F /  -20.5 °C 30.19in /  1022.2hPa Calm     74% 0.00in /  0mm 0 W/m2
07:10 1.1 °F /  -17.2 °C -5.3 °F /  -20.7 °C 30.19in /  1022.2hPa Calm     74% 0.00in /  0mm 0 W/m2
07:16 0.7 °F /  -17.4 °C -5.4 °F /  -20.8 °C 30.18in /  1021.9hPa Calm     75% 0.00in /  0mm 0 W/m2
07:18 0.6 °F /  -17.4 °C -5.5 °F /  -20.8 °C 30.19in /  1022.2hPa Calm     75% 0.00in /  0mm 0 W/m2
07:24 0.2 °F /  -17.7 °C -5.6 °F /  -20.9 °C 30.19in /  1022.2hPa Calm     76% 0.00in /  0mm 0 W/m2
07:34 0.0 °F /  -17.8 °C -5.5 °F /  -20.8 °C 30.19in /  1022.2hPa Calm     77% 0.00in /  0mm 0 W/m2
07:48 -0.6 °F /  -18.1 °C -5.8 °F /  -21 °C 30.18in /  1021.9hPa Calm     78% 0.00in /  0mm 9 W/m2
07:54 -0.6 °F /  -18.1 °C -5.8 °F /  -21 °C 30.18in /  1021.9hPa Calm     78% 0.00in /  0mm 12 W/m2
08:00 -0.6 °F /  -18.1 °C -5.6 °F /  -20.9 °C 30.18in /  1021.9hPa Calm     79% 0.00in /  0mm 16 W/m2
08:02 -0.5 °F /  -18.1 °C -5.5 °F /  -20.8 °C 30.18in /  1021.9hPa Calm     79% 0.00in /  0mm 19 W/m2
08:08 -0.3 °F /  -17.9 °C -5.0 °F /  -20.6 °C 30.19in /  1022.2hPa Calm     80% 0.00in /  0mm 26 W/m2
08:14 0.3 °F /  -17.6 °C -4.4 °F /  -20.2 °C 30.19in /  1022.2hPa Calm     80% 0.00in /  0mm 30 W/m2
08:20 0.5 °F /  -17.5 °C -4.2 °F /  -20.1 °C 30.19in /  1022.2hPa Calm     80% 0.00in /  0mm 30 W/m2
08:32 0.6 °F /  -17.4 °C -4.1 °F /  -20.1 °C 30.19in /  1022.2hPa Calm     80% 0.00in /  0mm 37 W/m2
08:44 3.9 °F /  -15.6 °C -0.9 °F /  -18.3 °C 30.20in /  1022.6hPa Calm     80% 0.00in /  0mm 40 W/m2
08:50 4.8 °F /  -15.1 °C -1.1 °F /  -18.4 °C 30.20in /  1022.6hPa Calm     76% 0.00in /  0mm 58 W/m2
09:02 6.0 °F /  -14.4 °C -0.8 °F /  -18.2 °C 30.20in /  1022.6hPa Calm     73% 0.00in /  0mm 162 W/m2
09:08 8.4 °F /  -13.1 °C 0.6 °F /  -17.4 °C 30.20in /  1022.6hPa Calm   1.0mph /  1.6km/h 70% 0.00in /  0mm 202 W/m2
09:14 9.6 °F /  -12.4 °C 0.8 °F /  -17.3 °C 30.19in /  1022.2hPa Calm   1.0mph /  1.6km/h 67% 0.00in /  0mm 239 W/m2
09:26 11.0 °F /  -11.7 °C 1.9 °F /  -16.7 °C 30.19in /  1022.2hPa Calm   1.0mph /  1.6km/h 66% 0.00in /  0mm 267 W/m2
09:32 12.0 °F /  -11.1 °C 1.8 °F /  -16.8 °C 30.19in /  1022.2hPa Calm   3.0mph /  4.8km/h 63% 0.00in /  0mm 281 W/m2
09:34 12.5 °F /  -10.8 °C 1.6 °F /  -16.9 °C 30.19in /  1022.2hPa Calm   3.0mph /  4.8km/h 61% 0.00in /  0mm 283 W/m2
09:40 14.0 °F /  -10 °C 1.2 °F /  -17.1 °C 30.19in /  1022.2hPa SE 1.0mph /  1.6km/h 1.0mph /  1.6km/h 56% 0.00in /  0mm 295 W/m2
09:46 15.2 °F /  -9.3 °C 0.7 °F /  -17.4 °C 30.19in /  1022.2hPa SSE 1.0mph /  1.6km/h 3.0mph /  4.8km/h 52% 0.00in /  0mm 308 W/m2
09:52 15.6 °F /  -9.1 °C 0.7 °F /  -17.4 °C 30.19in /  1022.2hPa SSE 2.0mph /  3.2km/h 5.0mph /  8km/h 51% 0.00in /  0mm 320 W/m2
09:58 15.5 °F /  -9.2 °C 0.1 °F /  -17.7 °C 30.19in /  1022.2hPa South 3.0mph /  4.8km/h 5.0mph /  8km/h 50% 0.00in /  0mm 330 W/m2
10:10 15.9 °F /  -8.9 °C 0.5 °F /  -17.5 °C 30.19in /  1022.2hPa SSW 4.0mph /  6.4km/h 4.0mph /  6.4km/h 50% 0.00in /  0mm 352 W/m2
10:16 16.1 °F /  -8.8 °C 0.3 °F /  -17.6 °C 30.19in /  1022.2hPa South 4.0mph /  6.4km/h 5.0mph /  8km/h 49% 0.00in /  0mm 362 W/m2
10:22 16.4 °F /  -8.7 °C 0.5 °F /  -17.5 °C 30.19in /  1022.2hPa SSW 4.0mph /  6.4km/h 4.0mph /  6.4km/h 49% 0.00in /  0mm 373 W/m2
10:28 16.9 °F /  -8.4 °C 0.6 °F /  -17.4 °C 30.18in /  1021.9hPa SW 3.0mph /  4.8km/h 4.0mph /  6.4km/h 48% 0.00in /  0mm 383 W/m2
10:34 17.1 °F /  -8.3 °C 1.2 °F /  -17.1 °C 30.18in /  1021.9hPa WSW 3.0mph /  4.8km/h 4.0mph /  6.4km/h 49% 0.00in /  0mm 390 W/m2
10:40 16.8 °F /  -8.4 °C 0.5 °F /  -17.5 °C 30.18in /  1021.9hPa SSE 4.0mph /  6.4km/h 4.0mph /  6.4km/h 48% 0.00in /  0mm 399 W/m2
10:48 17.2 °F /  -8.2 °C 0.8 °F /  -17.3 °C 30.18in /  1021.9hPa SW 5.0mph /  8km/h 6.0mph /  9.7km/h 48% 0.00in /  0mm 410 W/m2
11:00 18.2 °F /  -7.7 °C 1.8 °F /  -16.8 °C 30.17in /  1021.6hPa South 3.0mph /  4.8km/h 3.0mph /  4.8km/h 48% 0.00in /  0mm 422 W/m2
11:06 18.8 °F /  -7.3 °C 1.9 °F /  -16.7 °C 30.17in /  1021.6hPa South 2.0mph /  3.2km/h 4.0mph /  6.4km/h 47% 0.00in /  0mm 429 W/m2
11:12 18.6 °F /  -7.4 °C 1.7 °F /  -16.8 °C 30.17in /  1021.6hPa SSW 3.0mph /  4.8km/h 6.0mph /  9.7km/h 47% 0.00in /  0mm 434 W/m2
11:18 18.7 °F /  -7.4 °C 1.3 °F /  -17.1 °C 30.15in /  1020.9hPa SSE 4.0mph /  6.4km/h 6.0mph /  9.7km/h 46% 0.00in /  0mm 439 W/m2
11:24 18.7 °F /  -7.4 °C 0.8 °F /  -17.3 °C 30.15in /  1020.9hPa SSE 5.0mph /  8km/h 10.0mph /  16.1km/h 45% 0.00in /  0mm 443 W/m2
11:28 18.6 °F /  -7.4 °C 0.7 °F /  -17.4 °C 30.14in /  1020.5hPa South 5.0mph /  8km/h 10.0mph /  16.1km/h 45% 0.00in /  0mm 445 W/m2
11:34 19.1 °F /  -7.2 °C 1.2 °F /  -17.1 °C 30.13in /  1020.2hPa SSE 5.0mph /  8km/h 6.0mph /  9.7km/h 45% 0.00in /  0mm 448 W/m2
11:40 19.1 °F /  -7.2 °C 0.7 °F /  -17.4 °C 30.13in /  1020.2hPa South 5.0mph /  8km/h 5.0mph /  8km/h 44% 0.00in /  0mm 454 W/m2
11:46 19.4 °F /  -7 °C 1.0 °F /  -17.2 °C 30.12in /  1019.9hPa SW 5.0mph /  8km/h 5.0mph /  8km/h 44% 0.00in /  0mm 455 W/m2
11:52 19.9 °F /  -6.7 °C 1.5 °F /  -16.9 °C 30.12in /  1019.9hPa SE 5.0mph /  8km/h 6.0mph /  9.7km/h 44% 0.00in /  0mm 461 W/m2
12:04 19.9 °F /  -6.7 °C 1.0 °F /  -17.2 °C 30.11in /  1019.5hPa SSW 5.0mph /  8km/h 5.0mph /  8km/h 43% 0.00in /  0mm 508 W/m2
12:10 20.6 °F /  -6.3 °C 2.1 °F /  -16.6 °C 30.12in /  1019.9hPa South 5.0mph /  8km/h 5.0mph /  8km/h 44% 0.00in /  0mm 621 W/m2
12:16 21.4 °F /  -5.9 °C 2.8 °F /  -16.2 °C 30.11in /  1019.5hPa SE 4.0mph /  6.4km/h 6.0mph /  9.7km/h 44% 0.00in /  0mm 682 W/m2
12:22 21.4 °F /  -5.9 °C 1.8 °F /  -16.8 °C 30.10in /  1019.2hPa SSW 4.0mph /  6.4km/h 7.0mph /  11.3km/h 42% 0.00in /  0mm 540 W/m2
12:34 21.6 °F /  -5.8 °C 2.0 °F /  -16.7 °C 30.09in /  1018.8hPa SE 4.0mph /  6.4km/h 6.0mph /  9.7km/h 42% 0.00in /  0mm 279 W/m2
12:40 21.4 °F /  -5.9 °C 2.8 °F /  -16.2 °C 30.10in /  1019.2hPa SW 4.0mph /  6.4km/h 5.0mph /  8km/h 44% 0.00in /  0mm 241 W/m2
12:52 21.6 °F /  -5.8 °C 2.0 °F /  -16.7 °C 30.09in /  1018.8hPa South 3.0mph /  4.8km/h 3.0mph /  4.8km/h 42% 0.00in /  0mm 248 W/m2
12:58 21.6 °F /  -5.8 °C 2.0 °F /  -16.7 °C 30.09in /  1018.8hPa South 2.0mph /  3.2km/h 3.0mph /  4.8km/h 42% 0.00in /  0mm 246 W/m2
13:04 21.7 °F /  -5.7 °C 1.6 °F /  -16.9 °C 30.09in /  1018.8hPa SSW 2.0mph /  3.2km/h 4.0mph /  6.4km/h 41% 0.00in /  0mm 227 W/m2
13:06 21.8 °F /  -5.7 °C 2.2 °F /  -16.6 °C 30.09in /  1018.8hPa SSW 2.0mph /  3.2km/h 4.0mph /  6.4km/h 42% 0.00in /  0mm 243 W/m2
13:12 21.9 °F /  -5.6 °C 1.8 °F /  -16.8 °C 30.08in /  1018.5hPa SSW 2.0mph /  3.2km/h 2.0mph /  3.2km/h 41% 0.00in /  0mm 213 W/m2
13:18 22.2 °F /  -5.4 °C 2.0 °F /  -16.7 °C 30.07in /  1018.2hPa SW 2.0mph /  3.2km/h 2.0mph /  3.2km/h 41% 0.00in /  0mm 192 W/m2
13:24 22.1 °F /  -5.5 °C 2.5 °F /  -16.4 °C 30.07in /  1018.2hPa SSW 2.0mph /  3.2km/h 4.0mph /  6.4km/h 42% 0.00in /  0mm 179 W/m2
13:30 21.9 °F /  -5.6 °C 1.8 °F /  -16.8 °C 30.07in /  1018.2hPa SE 3.0mph /  4.8km/h 3.0mph /  4.8km/h 41% 0.00in /  0mm 158 W/m2
13:32 21.9 °F /  -5.6 °C 2.3 °F /  -16.5 °C 30.07in /  1018.2hPa SE 2.0mph /  3.2km/h 4.0mph /  6.4km/h 42% 0.00in /  0mm 149 W/m2
13:38 22.0 °F /  -5.6 °C 2.4 °F /  -16.4 °C 30.07in /  1018.2hPa SSE 2.0mph /  3.2km/h 4.0mph /  6.4km/h 42% 0.00in /  0mm 135 W/m2
13:44 22.0 °F /  -5.6 °C 2.4 °F /  -16.4 °C 30.06in /  1017.8hPa SSE 2.0mph /  3.2km/h 2.0mph /  3.2km/h 42% 0.00in /  0mm 134 W/m2
13:50 22.1 °F /  -5.5 °C 2.5 °F /  -16.4 °C 30.06in /  1017.8hPa SSE 2.0mph /  3.2km/h 3.0mph /  4.8km/h 42% 0.00in /  0mm 137 W/m2
14:02 22.3 °F /  -5.4 °C 2.6 °F /  -16.3 °C 30.06in /  1017.8hPa SSE 3.0mph /  4.8km/h 3.0mph /  4.8km/h 42% 0.00in /  0mm 128 W/m2
14:08 22.6 °F /  -5.2 °C 2.4 °F /  -16.4 °C 30.06in /  1017.8hPa South 2.0mph /  3.2km/h 7.0mph /  11.3km/h 41% 0.00in /  0mm 134 W/m2
14:24 23.1 °F /  -4.9 °C 1.8 °F /  -16.8 °C 30.05in /  1017.5hPa South 2.0mph /  3.2km/h 4.0mph /  6.4km/h 39% 0.00in /  0mm 123 W/m2
14:30 23.2 °F /  -4.9 °C 1.9 °F /  -16.7 °C 30.04in /  1017.2hPa South 3.0mph /  4.8km/h 3.0mph /  4.8km/h 39% 0.00in /  0mm 127 W/m2
14:36 23.2 °F /  -4.9 °C 1.3 °F /  -17.1 °C 30.04in /  1017.2hPa South 4.0mph /  6.4km/h 7.0mph /  11.3km/h 38% 0.00in /  0mm 111 W/m2
14:54 23.5 °F /  -4.7 °C 1.6 °F /  -16.9 °C 30.03in /  1016.8hPa SSE 3.0mph /  4.8km/h 4.0mph /  6.4km/h 38% 0.00in /  0mm 120 W/m2
14:56 23.5 °F /  -4.7 °C 1.6 °F /  -16.9 °C 30.03in /  1016.8hPa SSE 3.0mph /  4.8km/h 4.0mph /  6.4km/h 38% 0.00in /  0mm 127 W/m2
15:02 23.7 °F /  -4.6 °C 1.2 °F /  -17.1 °C 30.03in /  1016.8hPa SSE 3.0mph /  4.8km/h 3.0mph /  4.8km/h 37% 0.00in /  0mm 121 W/m2
15:08 23.8 °F /  -4.6 °C 1.8 °F /  -16.8 °C 30.02in /  1016.5hPa SSE 3.0mph /  4.8km/h 4.0mph /  6.4km/h 38% 0.00in /  0mm 109 W/m2
15:18 23.8 °F /  -4.6 °C 0.7 °F /  -17.4 °C 30.02in /  1016.5hPa SE 3.0mph /  4.8km/h 3.0mph /  4.8km/h 36% 0.00in /  0mm 98 W/m2
15:24 23.8 °F /  -4.6 °C 1.3 °F /  -17.1 °C 30.02in /  1016.5hPa SE 3.0mph /  4.8km/h 4.0mph /  6.4km/h 37% 0.00in /  0mm 83 W/m2
15:30 23.7 °F /  -4.6 °C 1.2 °F /  -17.1 °C 30.02in /  1016.5hPa SE 3.0mph /  4.8km/h 3.0mph /  4.8km/h 37% 0.00in /  0mm 153 W/m2
15:34 24.0 °F /  -4.4 °C 0.9 °F /  -17.3 °C 30.02in /  1016.5hPa SSE 2.0mph /  3.2km/h 3.0mph /  4.8km/h 36% 0.00in /  0mm 213 W/m2
15:40 24.2 °F /  -4.3 °C 1.0 °F /  -17.2 °C 30.01in /  1016.1hPa South 2.0mph /  3.2km/h 5.0mph /  8km/h 36% 0.00in /  0mm 176 W/m2
15:46 24.2 °F /  -4.3 °C 1.0 °F /  -17.2 °C 30.01in /  1016.1hPa SSE 3.0mph /  4.8km/h 5.0mph /  8km/h 36% 0.00in /  0mm 37 W/m2
15:58 23.5 °F /  -4.7 °C 1.6 °F /  -16.9 °C 30.01in /  1016.1hPa SSE 2.0mph /  3.2km/h 3.0mph /  4.8km/h 38% 0.00in /  0mm 33 W/m2
16:04 23.2 °F /  -4.9 °C 1.3 °F /  -17.1 °C 30.01in /  1016.1hPa SSE 1.0mph /  1.6km/h 2.0mph /  3.2km/h 38% 0.00in /  0mm 35 W/m2
16:08 23.1 °F /  -4.9 °C 1.2 °F /  -17.1 °C 30.01in /  1016.1hPa SSE 1.0mph /  1.6km/h 2.0mph /  3.2km/h 38% 0.00in /  0mm 28 W/m2
16:14 22.7 °F /  -5.2 °C 2.0 °F /  -16.7 °C 30.00in /  1015.8hPa Calm   1.0mph /  1.6km/h 40% 0.00in /  0mm 26 W/m2
16:32 22.6 °F /  -5.2 °C 1.9 °F /  -16.7 °C 30.00in /  1015.8hPa ESE 1.0mph /  1.6km/h 4.0mph /  6.4km/h 40% 0.00in /  0mm 12 W/m2
16:38 22.4 °F /  -5.3 °C 1.7 °F /  -16.8 °C 30.00in /  1015.8hPa SE 2.0mph /  3.2km/h 4.0mph /  6.4km/h 40% 0.00in /  0mm 7 W/m2
16:50 21.8 °F /  -5.7 °C 2.2 °F /  -16.6 °C 30.00in /  1015.8hPa SE 1.0mph /  1.6km/h 1.0mph /  1.6km/h 42% 0.00in /  0mm 0 W/m2
16:56 21.2 °F /  -6 °C 2.2 °F /  -16.6 °C 30.00in /  1015.8hPa Calm   2.0mph /  3.2km/h 43% 0.00in /  0mm 0 W/m2
17:02 20.8 °F /  -6.2 °C 1.8 °F /  -16.8 °C 30.00in /  1015.8hPa Calm     43% 0.00in /  0mm 0 W/m2
17:08 20.5 °F /  -6.4 °C 2.5 °F /  -16.4 °C 30.00in /  1015.8hPa Calm   1.0mph /  1.6km/h 45% 0.00in /  0mm 0 W/m2
17:14 20.6 °F /  -6.3 °C 2.1 °F /  -16.6 °C 30.00in /  1015.8hPa SSE 1.0mph /  1.6km/h 2.0mph /  3.2km/h 44% 0.00in /  0mm 0 W/m2
17:30 21.1 °F /  -6.1 °C 2.6 °F /  -16.3 °C 30.01in /  1016.1hPa Calm     44% 0.00in /  0mm 0 W/m2
17:36 21.3 °F /  -5.9 °C 2.7 °F /  -16.3 °C 30.01in /  1016.1hPa SSE 1.0mph /  1.6km/h 2.0mph /  3.2km/h 44% 0.00in /  0mm 0 W/m2
17:42 21.8 °F /  -5.7 °C 2.2 °F /  -16.6 °C 30.02in /  1016.5hPa SE 2.0mph /  3.2km/h 3.0mph /  4.8km/h 42% 0.00in /  0mm 0 W/m2
17:46 21.8 °F /  -5.7 °C 2.7 °F /  -16.3 °C 30.02in /  1016.5hPa SE 2.0mph /  3.2km/h 3.0mph /  4.8km/h 43% 0.00in /  0mm 0 W/m2
17:58 21.7 °F /  -5.7 °C 2.6 °F /  -16.3 °C 30.02in /  1016.5hPa Calm   2.0mph /  3.2km/h 43% 0.00in /  0mm 0 W/m2
18:04 21.7 °F /  -5.7 °C 2.6 °F /  -16.3 °C 30.02in /  1016.5hPa SE 1.0mph /  1.6km/h 2.0mph /  3.2km/h 43% 0.00in /  0mm 0 W/m2
18:10 21.5 °F /  -5.8 °C 3.4 °F /  -15.9 °C 30.02in /  1016.5hPa SE 1.0mph /  1.6km/h 1.0mph /  1.6km/h 45% 0.00in /  0mm 0 W/m2
18:14 21.4 °F /  -5.9 °C 3.8 °F /  -15.7 °C 30.02in /  1016.5hPa Calm   1.0mph /  1.6km/h 46% 0.00in /  0mm 0 W/m2
18:20 21.2 °F /  -6 °C 3.6 °F /  -15.8 °C 30.02in /  1016.5hPa Calm     46% 0.00in /  0mm 0 W/m2
18:22 21.2 °F /  -6 °C 3.6 °F /  -15.8 °C 30.01in /  1016.1hPa Calm     46% 0.00in /  0mm 0 W/m2
18:28 20.8 °F /  -6.2 °C 5.1 °F /  -14.9 °C 30.01in /  1016.1hPa Calm     50% 0.00in /  0mm 0 W/m2
18:34 20.4 °F /  -6.4 °C 5.1 °F /  -14.9 °C 30.01in /  1016.1hPa Calm     51% 0.00in /  0mm 0 W/m2
18:40 20.1 °F /  -6.6 °C 6.5 °F /  -14.2 °C 30.01in /  1016.1hPa Calm     55% 0.00in /  0mm 0 W/m2
18:44 20.0 °F /  -6.7 °C 6.0 °F /  -14.4 °C 30.01in /  1016.1hPa Calm     54% 0.00in /  0mm 0 W/m2
18:50 20.0 °F /  -6.7 °C 5.6 °F /  -14.7 °C 30.01in /  1016.1hPa Calm     53% 0.00in /  0mm 0 W/m2
18:58 20.1 °F /  -6.6 °C 5.7 °F /  -14.6 °C 30.01in /  1016.1hPa Calm     53% 0.00in /  0mm 0 W/m2
19:06 19.8 °F /  -6.8 °C 5.4 °F /  -14.8 °C 30.01in /  1016.1hPa Calm     53% 0.00in /  0mm 0 W/m2
19:16 19.5 °F /  -6.9 °C 5.9 °F /  -14.5 °C 30.00in /  1015.8hPa Calm     55% 0.00in /  0mm 0 W/m2
19:22 19.1 °F /  -7.2 °C 5.6 °F /  -14.7 °C 30.00in /  1015.8hPa Calm     55% 0.00in /  0mm 0 W/m2
19:34 18.7 °F /  -7.4 °C 6.0 °F /  -14.4 °C 29.99in /  1015.5hPa Calm     57% 0.00in /  0mm 0 W/m2
19:40 18.3 °F /  -7.6 °C 5.6 °F /  -14.7 °C 29.99in /  1015.5hPa Calm     57% 0.00in /  0mm 0 W/m2
19:52 17.3 °F /  -8.2 °C 6.5 °F /  -14.2 °C 29.99in /  1015.5hPa Calm     62% 0.00in /  0mm 0 W/m2
19:58 16.9 °F /  -8.4 °C 6.5 °F /  -14.2 °C 30.00in /  1015.8hPa Calm     63% 0.00in /  0mm 0 W/m2
20:04 16.7 °F /  -8.5 °C 6.3 °F /  -14.3 °C 30.00in /  1015.8hPa Calm     63% 0.00in /  0mm 0 W/m2
20:10 16.7 °F /  -8.5 °C 5.2 °F /  -14.9 °C 30.00in /  1015.8hPa Calm     60% 0.00in /  0mm 0 W/m2
20:16 16.6 °F /  -8.6 °C 4.4 °F /  -15.3 °C 30.01in /  1016.1hPa Calm     58% 0.00in /  0mm 0 W/m2
20:22 16.9 °F /  -8.4 °C 4.3 °F /  -15.4 °C 30.01in /  1016.1hPa Calm     57% 0.00in /  0mm 0 W/m2
20:34 17.4 °F /  -8.1 °C 4.0 °F /  -15.6 °C 30.01in /  1016.1hPa SE 1.0mph /  1.6km/h 1.0mph /  1.6km/h 55% 0.00in /  0mm 0 W/m2
20:40 18.3 °F /  -7.6 °C 3.6 °F /  -15.8 °C 30.01in /  1016.1hPa SSE 1.0mph /  1.6km/h 2.0mph /  3.2km/h 52% 0.00in /  0mm 0 W/m2
20:46 18.8 °F /  -7.3 °C 4.1 °F /  -15.5 °C 30.01in /  1016.1hPa SSE 1.0mph /  1.6km/h 2.0mph /  3.2km/h 52% 0.00in /  0mm 0 W/m2
20:52 19.0 °F /  -7.2 °C 3.4 °F /  -15.9 °C 30.01in /  1016.1hPa Calm   1.0mph /  1.6km/h 50% 0.00in /  0mm 0 W/m2
20:58 19.4 °F /  -7 °C 2.9 °F /  -16.2 °C 30.01in /  1016.1hPa SSE 1.0mph /  1.6km/h 2.0mph /  3.2km/h 48% 0.00in /  0mm 0 W/m2
21:04 20.0 °F /  -6.7 °C 3.0 °F /  -16.1 °C 30.01in /  1016.1hPa SSE 1.0mph /  1.6km/h 2.0mph /  3.2km/h 47% 0.00in /  0mm 0 W/m2
21:10 20.1 °F /  -6.6 °C 3.1 °F /  -16.1 °C 30.01in /  1016.1hPa SSE 1.0mph /  1.6km/h 2.0mph /  3.2km/h 47% 0.00in /  0mm 0 W/m2
21:16 20.4 °F /  -6.4 °C 3.3 °F /  -15.9 °C 30.01in /  1016.1hPa SSE 1.0mph /  1.6km/h 2.0mph /  3.2km/h 47% 0.00in /  0mm 0 W/m2
21:22 21.0 °F /  -6.1 °C 3.4 °F /  -15.9 °C 30.01in /  1016.1hPa SSE 1.0mph /  1.6km/h 2.0mph /  3.2km/h 46% 0.00in /  0mm 0 W/m2
21:28 21.5 °F /  -5.8 °C 2.9 °F /  -16.2 °C 30.01in /  1016.1hPa SSW 2.0mph /  3.2km/h 3.0mph /  4.8km/h 44% 0.00in /  0mm 0 W/m2
21:34 21.8 °F /  -5.7 °C 2.7 °F /  -16.3 °C 30.01in /  1016.1hPa SSE 3.0mph /  4.8km/h 4.0mph /  6.4km/h 43% 0.00in /  0mm 0 W/m2
21:40 22.0 °F /  -5.6 °C 2.4 °F /  -16.4 °C 30.00in /  1015.8hPa South 3.0mph /  4.8km/h 3.0mph /  4.8km/h 42% 0.00in /  0mm 0 W/m2
21:46 21.9 °F /  -5.6 °C 2.3 °F /  -16.5 °C 30.00in /  1015.8hPa South 2.0mph /  3.2km/h 4.0mph /  6.4km/h 42% 0.00in /  0mm 0 W/m2
21:50 21.9 °F /  -5.6 °C 2.3 °F /  -16.5 °C 30.00in /  1015.8hPa SSE 2.0mph /  3.2km/h 2.0mph /  3.2km/h 42% 0.00in /  0mm 0 W/m2
22:02 21.6 °F /  -5.8 °C 2.0 °F /  -16.7 °C 29.99in /  1015.5hPa South 2.0mph /  3.2km/h 2.0mph /  3.2km/h 42% 0.00in /  0mm 0 W/m2
22:08 21.4 °F /  -5.9 °C 2.3 °F /  -16.5 °C 29.99in /  1015.5hPa South 1.0mph /  1.6km/h 2.0mph /  3.2km/h 43% 0.00in /  0mm 0 W/m2
22:14 21.3 °F /  -5.9 °C 2.2 °F /  -16.6 °C 29.99in /  1015.5hPa SSE 1.0mph /  1.6km/h 2.0mph /  3.2km/h 43% 0.00in /  0mm 0 W/m2
22:20 21.3 °F /  -5.9 °C 2.2 °F /  -16.6 °C 29.99in /  1015.5hPa SSE 1.0mph /  1.6km/h 1.0mph /  1.6km/h 43% 0.00in /  0mm 0 W/m2
22:26 21.1 °F /  -6.1 °C 2.1 °F /  -16.6 °C 29.99in /  1015.5hPa Calm   2.0mph /  3.2km/h 43% 0.00in /  0mm 0 W/m2
22:50 20.2 °F /  -6.6 °C 1.7 °F /  -16.8 °C 29.99in /  1015.5hPa SSE 1.0mph /  1.6km/h 1.0mph /  1.6km/h 44% 0.00in /  0mm 0 W/m2
23:02 18.9 °F /  -7.3 °C 2.0 °F /  -16.7 °C 29.99in /  1015.5hPa Calm     47% 0.00in /  0mm 0 W/m2
23:16 17.0 °F /  -8.3 °C 1.5 °F /  -16.9 °C 29.98in /  1015.1hPa Calm     50% 0.00in /  0mm 0 W/m2
23:18 16.8 °F /  -8.4 °C 1.3 °F /  -17.1 °C 29.98in /  1015.1hPa Calm     50% 0.00in /  0mm 0 W/m2
23:22 16.4 °F /  -8.7 °C 1.8 °F /  -16.8 °C 29.98in /  1015.1hPa Calm     52% 0.00in /  0mm 0 W/m2
23:28 15.7 °F /  -9.1 °C 2.0 °F /  -16.7 °C 29.98in /  1015.1hPa Calm     54% 0.00in /  0mm 0 W/m2
23:30 15.6 °F /  -9.1 °C 2.3 °F /  -16.5 °C 29.98in /  1015.1hPa Calm     55% 0.00in /  0mm 0 W/m2
23:36 15.0 °F /  -9.4 °C 2.1 °F /  -16.6 °C 29.97in /  1014.8hPa Calm     56% 0.00in /  0mm 0 W/m2
23:44 14.2 °F /  -9.9 °C 2.1 °F /  -16.6 °C 29.97in /  1014.8hPa Calm     58% 0.00in /  0mm 0 W/m2
23:48 13.9 °F /  -10.1 °C 2.2 °F /  -16.6 °C 29.97in /  1014.8hPa Calm     59% 0.00in /  0mm 0 W/m2
23:58 13.3 °F /  -10.4 °C 2.0 °F /  -16.7 °C 29.98in /  1015.1hPa Calm     60% 0.00in /  0mm 0 W/m2
Country Meadow, Clay, NY, USA
Compliments of Weather Underground - 2 mb